sensor_id;sensor_type;location;lat;lon;timestamp;P1;durP1;ratioP1;P2;durP2;ratioP2
4214;SDS011;2121;48.062;7.850;2022-07-21T00:00:21;7.70;;;7.00;;
4214;SDS011;2121;48.062;7.850;2022-07-21T00:02:50;12.20;;;10.40;;
4214;SDS011;2121;48.062;7.850;2022-07-21T00:05:16;11.90;;;9.80;;
4214;SDS011;2121;48.062;7.850;2022-07-21T00:07:43;11.80;;;9.77;;
4214;SDS011;2121;48.062;7.850;2022-07-21T00:10:10;12.40;;;9.93;;
4214;SDS011;2121;48.062;7.850;2022-07-21T00:12:36;12.67;;;10.57;;
4214;SDS011;2121;48.062;7.850;2022-07-21T00:15:02;13.07;;;8.60;;
4214;SDS011;2121;48.062;7.850;2022-07-21T00:17:30;10.33;;;8.77;;
4214;SDS011;2121;48.062;7.850;2022-07-21T00:19:57;15.80;;;10.13;;
4214;SDS011;2121;48.062;7.850;2022-07-21T00:22:23;13.27;;;9.73;;
4214;SDS011;2121;48.062;7.850;2022-07-21T00:24:48;12.00;;;8.90;;
4214;SDS011;2121;48.062;7.850;2022-07-21T00:27:14;14.67;;;9.80;;
4214;SDS011;2121;48.062;7.850;2022-07-21T00:29:40;15.20;;;9.10;;
4214;SDS011;2121;48.062;7.850;2022-07-21T00:32:06;12.83;;;9.80;;
4214;SDS011;2121;48.062;7.850;2022-07-21T00:34:32;19.13;;;12.30;;
4214;SDS011;2121;48.062;7.850;2022-07-21T00:36:58;18.83;;;14.10;;
4214;SDS011;2121;48.062;7.850;2022-07-21T00:39:24;18.40;;;14.10;;
4214;SDS011;2121;48.062;7.850;2022-07-21T00:41:50;22.57;;;15.33;;
4214;SDS011;2121;48.062;7.850;2022-07-21T00:44:22;15.90;;;14.20;;
4214;SDS011;2121;48.062;7.850;2022-07-21T00:46:52;16.60;;;13.17;;
4214;SDS011;2121;48.062;7.850;2022-07-21T00:49:19;22.77;;;17.07;;
4214;SDS011;2121;48.062;7.850;2022-07-21T00:51:45;21.37;;;17.70;;
4214;SDS011;2121;48.062;7.850;2022-07-21T00:54:13;18.53;;;15.50;;
4214;SDS011;2121;48.062;7.850;2022-07-21T00:56:43;23.73;;;17.33;;
4214;SDS011;2121;48.062;7.850;2022-07-21T00:59:10;22.10;;;15.27;;
4214;SDS011;2121;48.062;7.850;2022-07-21T01:01:37;19.23;;;15.30;;
4214;SDS011;2121;48.062;7.850;2022-07-21T01:04:03;23.53;;;17.37;;
4214;SDS011;2121;48.062;7.850;2022-07-21T01:06:29;23.27;;;17.63;;
4214;SDS011;2121;48.062;7.850;2022-07-21T01:08:55;20.60;;;18.27;;
4214;SDS011;2121;48.062;7.850;2022-07-21T01:11:22;23.63;;;17.70;;
4214;SDS011;2121;48.062;7.850;2022-07-21T01:13:50;25.47;;;18.63;;
4214;SDS011;2121;48.062;7.850;2022-07-21T01:16:16;22.60;;;18.03;;
4214;SDS011;2121;48.062;7.850;2022-07-21T01:18:42;21.87;;;17.87;;
4214;SDS011;2121;48.062;7.850;2022-07-21T01:21:29;24.33;;;16.80;;
4214;SDS011;2121;48.062;7.850;2022-07-21T01:24:07;24.03;;;17.57;;
4214;SDS011;2121;48.062;7.850;2022-07-21T01:26:40;19.93;;;17.80;;
4214;SDS011;2121;48.062;7.850;2022-07-21T01:29:12;22.50;;;19.17;;
4214;SDS011;2121;48.062;7.850;2022-07-21T01:31:39;22.30;;;17.23;;
4214;SDS011;2121;48.062;7.850;2022-07-21T01:34:07;24.87;;;17.93;;
4214;SDS011;2121;48.062;7.850;2022-07-21T01:36:34;22.10;;;18.57;;
4214;SDS011;2121;48.062;7.850;2022-07-21T01:39:00;19.97;;;17.87;;
4214;SDS011;2121;48.062;7.850;2022-07-21T01:41:45;23.77;;;19.97;;
4214;SDS011;2121;48.062;7.850;2022-07-21T01:44:11;17.77;;;15.67;;
4214;SDS011;2121;48.062;7.850;2022-07-21T01:46:42;22.40;;;18.80;;
4214;SDS011;2121;48.062;7.850;2022-07-21T01:49:11;23.10;;;19.17;;
4214;SDS011;2121;48.062;7.850;2022-07-21T01:51:40;19.63;;;16.17;;
4214;SDS011;2121;48.062;7.850;2022-07-21T01:54:06;23.33;;;17.63;;
4214;SDS011;2121;48.062;7.850;2022-07-21T01:56:34;22.30;;;17.83;;
4214;SDS011;2121;48.062;7.850;2022-07-21T01:59:01;22.97;;;18.37;;
4214;SDS011;2121;48.062;7.850;2022-07-21T02:01:28;25.30;;;17.20;;
4214;SDS011;2121;48.062;7.850;2022-07-21T02:03:55;22.20;;;17.20;;
4214;SDS011;2121;48.062;7.850;2022-07-21T02:06:24;20.80;;;17.37;;
4214;SDS011;2121;48.062;7.850;2022-07-21T02:08:49;19.47;;;17.30;;
4214;SDS011;2121;48.062;7.850;2022-07-21T02:11:16;24.47;;;19.33;;
4214;SDS011;2121;48.062;7.850;2022-07-21T02:13:43;23.00;;;18.43;;
4214;SDS011;2121;48.062;7.850;2022-07-21T02:16:09;19.90;;;17.00;;
4214;SDS011;2121;48.062;7.850;2022-07-21T02:18:36;18.47;;;16.53;;
4214;SDS011;2121;48.062;7.850;2022-07-21T02:21:02;23.07;;;18.60;;
4214;SDS011;2121;48.062;7.850;2022-07-21T02:23:29;18.97;;;16.93;;
4214;SDS011;2121;48.062;7.850;2022-07-21T02:25:56;23.93;;;19.23;;
4214;SDS011;2121;48.062;7.850;2022-07-21T02:28:22;22.57;;;19.57;;
4214;SDS011;2121;48.062;7.850;2022-07-21T02:30:49;21.83;;;17.70;;
4214;SDS011;2121;48.062;7.850;2022-07-21T02:33:16;20.33;;;17.77;;
4214;SDS011;2121;48.062;7.850;2022-07-21T02:35:43;18.17;;;16.23;;
4214;SDS011;2121;48.062;7.850;2022-07-21T02:38:09;20.53;;;16.70;;
4214;SDS011;2121;48.062;7.850;2022-07-21T02:40:36;23.13;;;17.80;;
4214;SDS011;2121;48.062;7.850;2022-07-21T02:43:03;19.53;;;17.57;;
4214;SDS011;2121;48.062;7.850;2022-07-21T02:45:30;20.33;;;17.67;;
4214;SDS011;2121;48.062;7.850;2022-07-21T02:47:58;22.33;;;18.97;;
4214;SDS011;2121;48.062;7.850;2022-07-21T02:50:30;21.80;;;17.70;;
4214;SDS011;2121;48.062;7.850;2022-07-21T02:53:00;20.83;;;18.37;;
4214;SDS011;2121;48.062;7.850;2022-07-21T02:55:32;21.80;;;18.90;;
4214;SDS011;2121;48.062;7.850;2022-07-21T03:00:47;24.53;;;19.83;;
4214;SDS011;2121;48.062;7.850;2022-07-21T03:03:33;22.80;;;18.00;;
4214;SDS011;2121;48.062;7.850;2022-07-21T03:06:01;21.53;;;16.97;;
4214;SDS011;2121;48.062;7.850;2022-07-21T03:08:29;23.50;;;17.37;;
4214;SDS011;2121;48.062;7.850;2022-07-21T03:10:55;22.20;;;18.70;;
4214;SDS011;2121;48.062;7.850;2022-07-21T03:13:21;21.17;;;16.20;;
4214;SDS011;2121;48.062;7.850;2022-07-21T03:15:47;20.90;;;17.97;;
4214;SDS011;2121;48.062;7.850;2022-07-21T03:18:13;24.43;;;19.10;;
4214;SDS011;2121;48.062;7.850;2022-07-21T03:20:40;23.17;;;19.93;;
4214;SDS011;2121;48.062;7.850;2022-07-21T03:23:07;24.13;;;18.83;;
4214;SDS011;2121;48.062;7.850;2022-07-21T03:25:33;26.40;;;18.57;;
4214;SDS011;2121;48.062;7.850;2022-07-21T03:28:00;24.53;;;19.97;;
4214;SDS011;2121;48.062;7.850;2022-07-21T03:30:26;22.97;;;19.43;;
4214;SDS011;2121;48.062;7.850;2022-07-21T03:32:53;23.33;;;17.87;;
4214;SDS011;2121;48.062;7.850;2022-07-21T03:35:20;30.90;;;21.33;;
4214;SDS011;2121;48.062;7.850;2022-07-21T03:37:47;24.13;;;18.53;;
4214;SDS011;2121;48.062;7.850;2022-07-21T03:40:20;24.03;;;16.60;;
4214;SDS011;2121;48.062;7.850;2022-07-21T03:42:49;22.87;;;17.40;;
4214;SDS011;2121;48.062;7.850;2022-07-21T03:45:18;24.60;;;19.23;;
4214;SDS011;2121;48.062;7.850;2022-07-21T03:47:44;22.20;;;17.53;;
4214;SDS011;2121;48.062;7.850;2022-07-21T03:50:10;27.53;;;19.00;;
4214;SDS011;2121;48.062;7.850;2022-07-21T03:52:37;21.70;;;18.17;;
4214;SDS011;2121;48.062;7.850;2022-07-21T03:55:03;25.00;;;18.93;;
4214;SDS011;2121;48.062;7.850;2022-07-21T03:57:47;22.97;;;19.40;;
4214;SDS011;2121;48.062;7.850;2022-07-21T04:00:20;19.90;;;17.03;;
4214;SDS011;2121;48.062;7.850;2022-07-21T04:02:47;21.70;;;18.80;;
4214;SDS011;2121;48.062;7.850;2022-07-21T04:05:15;24.60;;;17.80;;
4214;SDS011;2121;48.062;7.850;2022-07-21T04:07:42;26.33;;;19.13;;
4214;SDS011;2121;48.062;7.850;2022-07-21T04:10:12;25.03;;;18.73;;
4214;SDS011;2121;48.062;7.850;2022-07-21T04:12:39;19.57;;;17.57;;
4214;SDS011;2121;48.062;7.850;2022-07-21T04:15:07;21.20;;;18.07;;
4214;SDS011;2121;48.062;7.850;2022-07-21T04:17:34;23.73;;;19.40;;
4214;SDS011;2121;48.062;7.850;2022-07-21T04:20:01;23.10;;;17.73;;
4214;SDS011;2121;48.062;7.850;2022-07-21T04:22:28;23.17;;;19.27;;
4214;SDS011;2121;48.062;7.850;2022-07-21T04:24:53;20.90;;;17.17;;
4214;SDS011;2121;48.062;7.850;2022-07-21T04:27:19;21.20;;;17.90;;
4214;SDS011;2121;48.062;7.850;2022-07-21T04:29:45;20.30;;;17.77;;
4214;SDS011;2121;48.062;7.850;2022-07-21T04:32:10;26.60;;;19.60;;
4214;SDS011;2121;48.062;7.850;2022-07-21T04:34:36;23.13;;;17.43;;
4214;SDS011;2121;48.062;7.850;2022-07-21T04:37:02;22.87;;;18.87;;
4214;SDS011;2121;48.062;7.850;2022-07-21T04:39:28;24.20;;;18.60;;
4214;SDS011;2121;48.062;7.850;2022-07-21T04:41:54;27.00;;;20.70;;
4214;SDS011;2121;48.062;7.850;2022-07-21T04:44:20;29.40;;;21.30;;
4214;SDS011;2121;48.062;7.850;2022-07-21T04:46:46;25.27;;;21.10;;
4214;SDS011;2121;48.062;7.850;2022-07-21T04:49:13;23.03;;;20.47;;
4214;SDS011;2121;48.062;7.850;2022-07-21T04:51:38;30.50;;;18.70;;
4214;SDS011;2121;48.062;7.850;2022-07-21T04:54:05;26.00;;;20.70;;
4214;SDS011;2121;48.062;7.850;2022-07-21T04:56:32;21.73;;;19.43;;
4214;SDS011;2121;48.062;7.850;2022-07-21T04:58:59;25.63;;;20.30;;
4214;SDS011;2121;48.062;7.850;2022-07-21T05:01:27;25.40;;;20.87;;
4214;SDS011;2121;48.062;7.850;2022-07-21T05:03:53;25.30;;;21.13;;
4214;SDS011;2121;48.062;7.850;2022-07-21T05:06:19;24.67;;;20.93;;
4214;SDS011;2121;48.062;7.850;2022-07-21T05:08:44;25.33;;;19.47;;
4214;SDS011;2121;48.062;7.850;2022-07-21T05:11:10;21.13;;;18.93;;
4214;SDS011;2121;48.062;7.850;2022-07-21T05:13:36;24.00;;;19.87;;
4214;SDS011;2121;48.062;7.850;2022-07-21T05:16:02;25.70;;;20.53;;
4214;SDS011;2121;48.062;7.850;2022-07-21T05:18:28;22.90;;;19.97;;
4214;SDS011;2121;48.062;7.850;2022-07-21T05:20:53;25.67;;;21.67;;
4214;SDS011;2121;48.062;7.850;2022-07-21T05:23:19;21.83;;;19.30;;
4214;SDS011;2121;48.062;7.850;2022-07-21T05:25:45;26.37;;;18.40;;
4214;SDS011;2121;48.062;7.850;2022-07-21T05:28:11;20.40;;;17.43;;
4214;SDS011;2121;48.062;7.850;2022-07-21T05:30:36;22.50;;;18.93;;
4214;SDS011;2121;48.062;7.850;2022-07-21T05:33:02;21.37;;;19.03;;
4214;SDS011;2121;48.062;7.850;2022-07-21T05:35:28;20.13;;;17.43;;
4214;SDS011;2121;48.062;7.850;2022-07-21T05:37:55;20.17;;;17.00;;
4214;SDS011;2121;48.062;7.850;2022-07-21T05:40:21;22.87;;;19.10;;
4214;SDS011;2121;48.062;7.850;2022-07-21T05:42:47;20.67;;;18.47;;
4214;SDS011;2121;48.062;7.850;2022-07-21T05:45:13;21.03;;;17.43;;
4214;SDS011;2121;48.062;7.850;2022-07-21T05:47:39;19.37;;;17.23;;
4214;SDS011;2121;48.062;7.850;2022-07-21T05:50:06;27.77;;;19.70;;
4214;SDS011;2121;48.062;7.850;2022-07-21T05:52:32;20.70;;;18.37;;
4214;SDS011;2121;48.062;7.850;2022-07-21T05:54:58;22.93;;;19.37;;
4214;SDS011;2121;48.062;7.850;2022-07-21T05:57:24;24.00;;;19.07;;
4214;SDS011;2121;48.062;7.850;2022-07-21T05:59:50;24.17;;;19.40;;
4214;SDS011;2121;48.062;7.850;2022-07-21T06:02:16;27.07;;;19.83;;
4214;SDS011;2121;48.062;7.850;2022-07-21T06:04:44;21.80;;;18.50;;
4214;SDS011;2121;48.062;7.850;2022-07-21T06:07:13;22.77;;;18.90;;
4214;SDS011;2121;48.062;7.850;2022-07-21T06:09:39;22.70;;;18.77;;
4214;SDS011;2121;48.062;7.850;2022-07-21T06:12:05;26.07;;;20.20;;
4214;SDS011;2121;48.062;7.850;2022-07-21T06:14:30;23.37;;;17.30;;
4214;SDS011;2121;48.062;7.850;2022-07-21T06:16:56;21.67;;;19.13;;
4214;SDS011;2121;48.062;7.850;2022-07-21T06:19:22;21.60;;;18.17;;
4214;SDS011;2121;48.062;7.850;2022-07-21T06:21:48;18.60;;;16.73;;
4214;SDS011;2121;48.062;7.850;2022-07-21T06:24:14;25.83;;;19.10;;
4214;SDS011;2121;48.062;7.850;2022-07-21T06:26:40;19.83;;;16.93;;
4214;SDS011;2121;48.062;7.850;2022-07-21T06:29:06;21.73;;;18.27;;
4214;SDS011;2121;48.062;7.850;2022-07-21T06:31:33;22.87;;;20.23;;
4214;SDS011;2121;48.062;7.850;2022-07-21T06:33:59;21.17;;;18.87;;
4214;SDS011;2121;48.062;7.850;2022-07-21T06:36:24;21.60;;;18.97;;
4214;SDS011;2121;48.062;7.850;2022-07-21T06:38:50;18.93;;;17.00;;
4214;SDS011;2121;48.062;7.850;2022-07-21T06:41:16;24.80;;;17.73;;
4214;SDS011;2121;48.062;7.850;2022-07-21T06:43:42;18.13;;;16.23;;
4214;SDS011;2121;48.062;7.850;2022-07-21T06:46:08;22.20;;;15.93;;
4214;SDS011;2121;48.062;7.850;2022-07-21T06:48:33;19.87;;;17.53;;
4214;SDS011;2121;48.062;7.850;2022-07-21T06:50:59;18.70;;;16.00;;
4214;SDS011;2121;48.062;7.850;2022-07-21T06:53:26;19.20;;;16.07;;
4214;SDS011;2121;48.062;7.850;2022-07-21T06:55:52;17.37;;;15.47;;
4214;SDS011;2121;48.062;7.850;2022-07-21T06:58:19;16.17;;;13.60;;
4214;SDS011;2121;48.062;7.850;2022-07-21T07:00:49;16.27;;;14.40;;
4214;SDS011;2121;48.062;7.850;2022-07-21T07:03:17;21.27;;;15.80;;
4214;SDS011;2121;48.062;7.850;2022-07-21T07:05:45;16.30;;;14.20;;
4214;SDS011;2121;48.062;7.850;2022-07-21T07:08:12;16.80;;;14.73;;
4214;SDS011;2121;48.062;7.850;2022-07-21T07:10:41;17.43;;;13.23;;
4214;SDS011;2121;48.062;7.850;2022-07-21T07:13:08;13.73;;;12.37;;
4214;SDS011;2121;48.062;7.850;2022-07-21T07:15:35;14.43;;;12.03;;
4214;SDS011;2121;48.062;7.850;2022-07-21T07:18:01;17.53;;;12.77;;
4214;SDS011;2121;48.062;7.850;2022-07-21T07:20:27;16.77;;;12.67;;
4214;SDS011;2121;48.062;7.850;2022-07-21T07:22:52;20.50;;;11.63;;
4214;SDS011;2121;48.062;7.850;2022-07-21T07:25:18;14.07;;;12.60;;
4214;SDS011;2121;48.062;7.850;2022-07-21T07:27:45;16.60;;;11.70;;
4214;SDS011;2121;48.062;7.850;2022-07-21T07:30:12;12.40;;;11.10;;
4214;SDS011;2121;48.062;7.850;2022-07-21T07:32:38;14.67;;;10.67;;
4214;SDS011;2121;48.062;7.850;2022-07-21T07:35:05;14.63;;;10.70;;
4214;SDS011;2121;48.062;7.850;2022-07-21T07:37:34;16.03;;;11.30;;
4214;SDS011;2121;48.062;7.850;2022-07-21T07:40:02;11.53;;;9.97;;
4214;SDS011;2121;48.062;7.850;2022-07-21T07:42:30;10.90;;;9.80;;
4214;SDS011;2121;48.062;7.850;2022-07-21T07:44:56;12.30;;;10.67;;
4214;SDS011;2121;48.062;7.850;2022-07-21T07:47:22;12.80;;;11.17;;
4214;SDS011;2121;48.062;7.850;2022-07-21T07:49:49;12.97;;;11.03;;
4214;SDS011;2121;48.062;7.850;2022-07-21T07:52:15;16.90;;;9.70;;
4214;SDS011;2121;48.062;7.850;2022-07-21T07:54:41;17.10;;;10.70;;
4214;SDS011;2121;48.062;7.850;2022-07-21T07:57:07;14.00;;;10.13;;
4214;SDS011;2121;48.062;7.850;2022-07-21T07:59:33;12.87;;;10.37;;
4214;SDS011;2121;48.062;7.850;2022-07-21T08:01:58;16.70;;;10.60;;
4214;SDS011;2121;48.062;7.850;2022-07-21T08:04:24;11.53;;;10.33;;
4214;SDS011;2121;48.062;7.850;2022-07-21T08:06:51;14.40;;;9.00;;
4214;SDS011;2121;48.062;7.850;2022-07-21T08:09:17;9.40;;;8.53;;
4214;SDS011;2121;48.062;7.850;2022-07-21T08:11:44;11.93;;;10.17;;
4214;SDS011;2121;48.062;7.850;2022-07-21T08:14:12;11.23;;;9.67;;
4214;SDS011;2121;48.062;7.850;2022-07-21T08:16:39;11.97;;;10.07;;
4214;SDS011;2121;48.062;7.850;2022-07-21T08:19:05;10.70;;;9.50;;
4214;SDS011;2121;48.062;7.850;2022-07-21T08:21:31;12.67;;;9.40;;
4214;SDS011;2121;48.062;7.850;2022-07-21T08:23:58;10.53;;;8.80;;
4214;SDS011;2121;48.062;7.850;2022-07-21T08:26:25;10.90;;;8.90;;
4214;SDS011;2121;48.062;7.850;2022-07-21T08:28:52;9.27;;;8.17;;
4214;SDS011;2121;48.062;7.850;2022-07-21T08:31:21;9.80;;;8.40;;
4214;SDS011;2121;48.062;7.850;2022-07-21T08:33:47;10.60;;;9.40;;
4214;SDS011;2121;48.062;7.850;2022-07-21T08:36:13;11.80;;;9.80;;
4214;SDS011;2121;48.062;7.850;2022-07-21T08:38:39;10.60;;;9.50;;
4214;SDS011;2121;48.062;7.850;2022-07-21T08:41:05;12.70;;;10.67;;
4214;SDS011;2121;48.062;7.850;2022-07-21T08:43:33;10.37;;;9.40;;
4214;SDS011;2121;48.062;7.850;2022-07-21T08:45:59;14.30;;;9.37;;
4214;SDS011;2121;48.062;7.850;2022-07-21T08:48:26;11.10;;;9.97;;
4214;SDS011;2121;48.062;7.850;2022-07-21T08:50:54;10.77;;;9.13;;
4214;SDS011;2121;48.062;7.850;2022-07-21T08:53:21;10.77;;;9.70;;
4214;SDS011;2121;48.062;7.850;2022-07-21T08:55:48;10.80;;;9.70;;
4214;SDS011;2121;48.062;7.850;2022-07-21T08:58:14;9.10;;;8.20;;
4214;SDS011;2121;48.062;7.850;2022-07-21T09:00:45;8.90;;;8.00;;
4214;SDS011;2121;48.062;7.850;2022-07-21T09:05:59;14.60;;;7.80;;
4214;SDS011;2121;48.062;7.850;2022-07-21T09:08:44;13.80;;;7.70;;
4214;SDS011;2121;48.062;7.850;2022-07-21T09:11:19;8.30;;;6.40;;
4214;SDS011;2121;48.062;7.850;2022-07-21T09:14:08;8.53;;;6.40;;
4214;SDS011;2121;48.062;7.850;2022-07-21T09:16:34;7.10;;;5.40;;
4214;SDS011;2121;48.062;7.850;2022-07-21T09:19:02;6.80;;;6.30;;
4214;SDS011;2121;48.062;7.850;2022-07-21T09:21:30;6.47;;;5.83;;
4214;SDS011;2121;48.062;7.850;2022-07-21T09:24:18;6.00;;;5.40;;
4214;SDS011;2121;48.062;7.850;2022-07-21T09:27:24;7.13;;;6.30;;
4214;SDS011;2121;48.062;7.850;2022-07-21T09:32:35;5.53;;;5.03;;
4214;SDS011;2121;48.062;7.850;2022-07-21T09:35:03;6.13;;;5.63;;
4214;SDS011;2121;48.062;7.850;2022-07-21T09:37:34;8.87;;;5.30;;
4214;SDS011;2121;48.062;7.850;2022-07-21T09:40:03;8.10;;;6.10;;
4214;SDS011;2121;48.062;7.850;2022-07-21T09:42:42;10.83;;;5.50;;
4214;SDS011;2121;48.062;7.850;2022-07-21T09:45:16;6.80;;;5.80;;
4214;SDS011;2121;48.062;7.850;2022-07-21T09:47:43;7.67;;;6.40;;
4214;SDS011;2121;48.062;7.850;2022-07-21T09:50:12;6.97;;;6.30;;
4214;SDS011;2121;48.062;7.850;2022-07-21T09:52:44;8.20;;;6.17;;
4214;SDS011;2121;48.062;7.850;2022-07-21T09:55:12;7.53;;;6.60;;
4214;SDS011;2121;48.062;7.850;2022-07-21T09:57:40;7.60;;;5.87;;
4214;SDS011;2121;48.062;7.850;2022-07-21T10:00:08;7.28;;;6.10;;
4214;SDS011;2121;48.062;7.850;2022-07-21T10:02:37;6.05;;;5.43;;
4214;SDS011;2121;48.062;7.850;2022-07-21T10:07:31;6.55;;;5.70;;
4214;SDS011;2121;48.062;7.850;2022-07-21T10:10:01;6.45;;;5.85;;
4214;SDS011;2121;48.062;7.850;2022-07-21T10:12:28;7.68;;;5.75;;
4214;SDS011;2121;48.062;7.850;2022-07-21T10:14:54;7.70;;;6.50;;
4214;SDS011;2121;48.062;7.850;2022-07-21T10:17:21;6.70;;;6.10;;
4214;SDS011;2121;48.062;7.850;2022-07-21T10:25:40;7.35;;;5.75;;
4214;SDS011;2121;48.062;7.850;2022-07-21T10:30:49;5.63;;;5.13;;
4214;SDS011;2121;48.062;7.850;2022-07-21T10:33:20;6.20;;;5.00;;
4214;SDS011;2121;48.062;7.850;2022-07-21T10:36:07;5.90;;;5.25;;
4214;SDS011;2121;48.062;7.850;2022-07-21T10:38:34;5.05;;;4.65;;
4214;SDS011;2121;48.062;7.850;2022-07-21T10:41:03;4.75;;;4.25;;
4214;SDS011;2121;48.062;7.850;2022-07-21T10:45:57;4.95;;;4.55;;
4214;SDS011;2121;48.062;7.850;2022-07-21T10:51:10;8.40;;;5.00;;
4214;SDS011;2121;48.062;7.850;2022-07-21T10:53:41;4.80;;;4.40;;
4214;SDS011;2121;48.062;7.850;2022-07-21T10:56:09;4.72;;;4.22;;
4214;SDS011;2121;48.062;7.850;2022-07-21T10:58:53;4.10;;;3.80;;
4214;SDS011;2121;48.062;7.850;2022-07-21T11:01:20;5.90;;;4.60;;
4214;SDS011;2121;48.062;7.850;2022-07-21T11:04:09;5.15;;;4.63;;
4214;SDS011;2121;48.062;7.850;2022-07-21T11:06:45;6.85;;;4.50;;
4214;SDS011;2121;48.062;7.850;2022-07-21T11:09:15;7.03;;;4.10;;
4214;SDS011;2121;48.062;7.850;2022-07-21T11:14:38;5.53;;;4.43;;
4214;SDS011;2121;48.062;7.850;2022-07-21T11:17:28;4.88;;;4.20;;
4214;SDS011;2121;48.062;7.850;2022-07-21T11:19:55;4.45;;;4.15;;
4214;SDS011;2121;48.062;7.850;2022-07-21T11:22:24;4.20;;;3.90;;
4214;SDS011;2121;48.062;7.850;2022-07-21T11:24:59;4.53;;;4.05;;
4214;SDS011;2121;48.062;7.850;2022-07-21T11:27:29;8.60;;;4.28;;
4214;SDS011;2121;48.062;7.850;2022-07-21T11:29:58;4.38;;;4.07;;
4214;SDS011;2121;48.062;7.850;2022-07-21T11:32:27;5.22;;;4.13;;
4214;SDS011;2121;48.062;7.850;2022-07-21T11:42:43;3.80;;;3.60;;
4214;SDS011;2121;48.062;7.850;2022-07-21T11:45:12;3.92;;;3.63;;
4214;SDS011;2121;48.062;7.850;2022-07-21T11:47:39;3.72;;;3.10;;
4214;SDS011;2121;48.062;7.850;2022-07-21T11:50:09;4.60;;;4.18;;
4214;SDS011;2121;48.062;7.850;2022-07-21T11:52:38;3.85;;;3.55;;
4214;SDS011;2121;48.062;7.850;2022-07-21T11:55:06;4.13;;;3.83;;
4214;SDS011;2121;48.062;7.850;2022-07-21T11:57:34;4.13;;;3.83;;
4214;SDS011;2121;48.062;7.850;2022-07-21T12:00:01;3.75;;;3.45;;
4214;SDS011;2121;48.062;7.850;2022-07-21T12:02:32;3.53;;;3.33;;
4214;SDS011;2121;48.062;7.850;2022-07-21T12:07:30;8.02;;;3.58;;
4214;SDS011;2121;48.062;7.850;2022-07-21T12:10:03;4.80;;;3.50;;
4214;SDS011;2121;48.062;7.850;2022-07-21T12:12:46;3.85;;;3.55;;
4214;SDS011;2121;48.062;7.850;2022-07-21T12:18:06;3.30;;;3.10;;
4214;SDS011;2121;48.062;7.850;2022-07-21T12:20:42;3.72;;;2.80;;
4214;SDS011;2121;48.062;7.850;2022-07-21T12:25:53;3.72;;;2.97;;
4214;SDS011;2121;48.062;7.850;2022-07-21T12:28:40;4.55;;;3.20;;
4214;SDS011;2121;48.062;7.850;2022-07-21T12:31:12;4.07;;;3.78;;
4214;SDS011;2121;48.062;7.850;2022-07-21T12:33:45;3.08;;;2.78;;
4214;SDS011;2121;48.062;7.850;2022-07-21T12:36:11;2.92;;;2.72;;
4214;SDS011;2121;48.062;7.850;2022-07-21T12:41:16;3.00;;;2.80;;
4214;SDS011;2121;48.062;7.850;2022-07-21T12:43:54;3.58;;;3.28;;
4214;SDS011;2121;48.062;7.850;2022-07-21T12:46:27;3.60;;;2.97;;
4214;SDS011;2121;48.062;7.850;2022-07-21T12:49:02;3.25;;;2.95;;
4214;SDS011;2121;48.062;7.850;2022-07-21T12:51:29;3.33;;;3.08;;
4214;SDS011;2121;48.062;7.850;2022-07-21T12:53:55;4.22;;;3.00;;
4214;SDS011;2121;48.062;7.850;2022-07-21T12:56:22;27.38;;;3.40;;
4214;SDS011;2121;48.062;7.850;2022-07-21T12:58:51;3.72;;;3.28;;
4214;SDS011;2121;48.062;7.850;2022-07-21T13:01:19;3.35;;;3.15;;
4214;SDS011;2121;48.062;7.850;2022-07-21T13:03:46;2.80;;;2.47;;
4214;SDS011;2121;48.062;7.850;2022-07-21T13:06:12;3.28;;;2.65;;
4214;SDS011;2121;48.062;7.850;2022-07-21T13:08:39;3.58;;;3.28;;
4214;SDS011;2121;48.062;7.850;2022-07-21T13:11:13;3.08;;;2.90;;
4214;SDS011;2121;48.062;7.850;2022-07-21T13:13:44;2.90;;;2.80;;
4214;SDS011;2121;48.062;7.850;2022-07-21T13:16:11;2.83;;;2.65;;
4214;SDS011;2121;48.062;7.850;2022-07-21T13:18:37;3.10;;;2.72;;
4214;SDS011;2121;48.062;7.850;2022-07-21T13:21:03;2.50;;;2.30;;
4214;SDS011;2121;48.062;7.850;2022-07-21T13:23:30;2.95;;;2.33;;
4214;SDS011;2121;48.062;7.850;2022-07-21T13:25:56;3.25;;;3.05;;
4214;SDS011;2121;48.062;7.850;2022-07-21T13:28:22;3.03;;;2.83;;
4214;SDS011;2121;48.062;7.850;2022-07-21T13:30:47;2.80;;;2.60;;
4214;SDS011;2121;48.062;7.850;2022-07-21T13:33:14;3.13;;;2.60;;
4214;SDS011;2121;48.062;7.850;2022-07-21T13:35:41;3.10;;;2.95;;
4214;SDS011;2121;48.062;7.850;2022-07-21T13:38:07;3.30;;;2.95;;
4214;SDS011;2121;48.062;7.850;2022-07-21T13:40:33;3.45;;;2.72;;
4214;SDS011;2121;48.062;7.850;2022-07-21T13:42:59;3.70;;;3.42;;
4214;SDS011;2121;48.062;7.850;2022-07-21T13:45:25;3.90;;;3.00;;
4214;SDS011;2121;48.062;7.850;2022-07-21T13:47:51;3.15;;;3.00;;
4214;SDS011;2121;48.062;7.850;2022-07-21T13:50:16;3.35;;;2.70;;
4214;SDS011;2121;48.062;7.850;2022-07-21T13:52:42;2.58;;;2.47;;
4214;SDS011;2121;48.062;7.850;2022-07-21T13:55:08;3.05;;;2.53;;
4214;SDS011;2121;48.062;7.850;2022-07-21T13:57:35;2.70;;;2.60;;
4214;SDS011;2121;48.062;7.850;2022-07-21T14:00:05;3.78;;;3.28;;
4214;SDS011;2121;48.062;7.850;2022-07-21T14:02:34;2.95;;;2.30;;
4214;SDS011;2121;48.062;7.850;2022-07-21T14:05:01;4.32;;;3.15;;
4214;SDS011;2121;48.062;7.850;2022-07-21T14:07:28;2.92;;;2.78;;
4214;SDS011;2121;48.062;7.850;2022-07-21T14:09:54;2.95;;;2.75;;
4214;SDS011;2121;48.062;7.850;2022-07-21T14:12:20;3.53;;;2.95;;
4214;SDS011;2121;48.062;7.850;2022-07-21T14:14:46;3.92;;;2.53;;
4214;SDS011;2121;48.062;7.850;2022-07-21T14:17:12;2.72;;;2.50;;
4214;SDS011;2121;48.062;7.850;2022-07-21T14:19:43;2.15;;;1.98;;
4214;SDS011;2121;48.062;7.850;2022-07-21T14:22:11;3.30;;;3.08;;
4214;SDS011;2121;48.062;7.850;2022-07-21T14:24:37;6.78;;;2.85;;
4214;SDS011;2121;48.062;7.850;2022-07-21T14:27:22;3.30;;;3.10;;
4214;SDS011;2121;48.062;7.850;2022-07-21T14:29:47;4.38;;;3.53;;
4214;SDS011;2121;48.062;7.850;2022-07-21T14:32:13;5.53;;;3.50;;
4214;SDS011;2121;48.062;7.850;2022-07-21T14:34:41;4.05;;;3.75;;
4214;SDS011;2121;48.062;7.850;2022-07-21T14:37:07;3.67;;;3.10;;
4214;SDS011;2121;48.062;7.850;2022-07-21T14:39:33;3.38;;;2.70;;
4214;SDS011;2121;48.062;7.850;2022-07-21T14:41:59;6.20;;;3.15;;
4214;SDS011;2121;48.062;7.850;2022-07-21T14:44:24;3.05;;;2.75;;
4214;SDS011;2121;48.062;7.850;2022-07-21T14:46:50;2.50;;;2.40;;
4214;SDS011;2121;48.062;7.850;2022-07-21T14:49:16;3.25;;;2.95;;
4214;SDS011;2121;48.062;7.850;2022-07-21T14:51:42;4.45;;;3.22;;
4214;SDS011;2121;48.062;7.850;2022-07-21T14:54:07;4.30;;;3.03;;
4214;SDS011;2121;48.062;7.850;2022-07-21T14:56:33;3.72;;;2.53;;
4214;SDS011;2121;48.062;7.850;2022-07-21T14:58:59;3.65;;;2.97;;
4214;SDS011;2121;48.062;7.850;2022-07-21T15:01:25;2.92;;;2.72;;
4214;SDS011;2121;48.062;7.850;2022-07-21T15:03:51;17.73;;;3.63;;
4214;SDS011;2121;48.062;7.850;2022-07-21T15:06:17;3.47;;;3.17;;
4214;SDS011;2121;48.062;7.850;2022-07-21T15:08:43;3.53;;;3.13;;
4214;SDS011;2121;48.062;7.850;2022-07-21T15:11:09;2.67;;;2.28;;
4214;SDS011;2121;48.062;7.850;2022-07-21T15:13:35;3.42;;;3.22;;
4214;SDS011;2121;48.062;7.850;2022-07-21T15:16:01;2.63;;;2.53;;
4214;SDS011;2121;48.062;7.850;2022-07-21T15:18:27;2.75;;;2.55;;
4214;SDS011;2121;48.062;7.850;2022-07-21T15:20:53;2.20;;;2.10;;
4214;SDS011;2121;48.062;7.850;2022-07-21T15:23:19;2.83;;;2.63;;
4214;SDS011;2121;48.062;7.850;2022-07-21T15:25:45;2.97;;;2.67;;
4214;SDS011;2121;48.062;7.850;2022-07-21T15:28:10;5.05;;;2.90;;
4214;SDS011;2121;48.062;7.850;2022-07-21T15:30:36;2.30;;;2.20;;
4214;SDS011;2121;48.062;7.850;2022-07-21T15:33:02;3.28;;;3.08;;
4214;SDS011;2121;48.062;7.850;2022-07-21T15:35:28;2.80;;;2.60;;
4214;SDS011;2121;48.062;7.850;2022-07-21T15:37:54;3.65;;;2.33;;
4214;SDS011;2121;48.062;7.850;2022-07-21T15:40:19;2.78;;;2.60;;
4214;SDS011;2121;48.062;7.850;2022-07-21T15:42:46;3.45;;;2.80;;
4214;SDS011;2121;48.062;7.850;2022-07-21T15:45:12;2.45;;;2.35;;
4214;SDS011;2121;48.062;7.850;2022-07-21T15:47:38;3.35;;;2.95;;
4214;SDS011;2121;48.062;7.850;2022-07-21T15:50:04;2.78;;;2.55;;